createdAt,value
2024-01-09T00:02:21.126Z,62.91
2024-01-09T00:04:48.223Z,63.14
2024-01-09T00:07:15.001Z,63.08
2024-01-09T00:09:41.888Z,63.49
2024-01-09T00:12:09.393Z,63.06
2024-01-09T00:14:39.700Z,62.75
2024-01-09T00:17:06.950Z,63.62
2024-01-09T00:19:35.649Z,63.37
2024-01-09T00:22:03.914Z,62.83
2024-01-09T00:24:30.779Z,63.34
2024-01-09T00:26:57.705Z,63.50
2024-01-09T00:29:24.685Z,62.49
2024-01-09T00:31:51.571Z,62.55
2024-01-09T00:34:18.534Z,63.20
2024-01-09T00:36:45.912Z,63.57
2024-01-09T00:39:12.918Z,63.39
2024-01-09T00:41:39.791Z,63.62
2024-01-09T00:44:07.231Z,63.50
2024-01-09T00:46:34.530Z,63.54
2024-01-09T00:49:01.891Z,64.18
2024-01-09T00:51:28.833Z,64.37
2024-01-09T00:53:58.403Z,63.91
2024-01-09T00:56:25.208Z,64.03
2024-01-09T00:58:51.955Z,64.26
2024-01-09T01:01:18.912Z,63.77
2024-01-09T01:03:46.136Z,64.42
2024-01-09T01:06:13.187Z,64.06
2024-01-09T01:08:40.115Z,64.50
2024-01-09T01:11:07.492Z,63.85
2024-01-09T01:13:34.416Z,64.44
2024-01-09T01:16:01.695Z,64.86
2024-01-09T01:18:28.573Z,65.18
2024-01-09T01:21:00.767Z,65.10
2024-01-09T01:23:27.647Z,65.25
2024-01-09T01:25:54.750Z,65.35
2024-01-09T01:28:21.721Z,64.73
2024-01-09T01:30:48.589Z,64.63
2024-01-09T01:33:15.560Z,64.77
2024-01-09T01:35:42.813Z,64.58
2024-01-09T01:38:09.762Z,64.36
2024-01-09T01:40:36.565Z,64.71
2024-01-09T01:43:03.434Z,64.47
2024-01-09T01:45:30.926Z,64.21
2024-01-09T01:47:58.212Z,65.04
2024-01-09T01:50:25.219Z,64.48
2024-01-09T01:52:52.107Z,64.63
2024-01-09T01:55:20.602Z,64.95
2024-01-09T01:57:48.203Z,64.76
2024-01-09T02:00:17.234Z,64.52
2024-01-09T02:02:44.073Z,64.34
2024-01-09T02:05:10.965Z,64.63
2024-01-09T02:07:37.833Z,64.33
2024-01-09T02:10:05.001Z,64.10
2024-01-09T02:12:31.846Z,64.69
2024-01-09T02:14:59.030Z,64.26
2024-01-09T02:17:28.536Z,64.10
2024-01-09T02:19:57.087Z,64.02
2024-01-09T02:22:24.021Z,64.29
2024-01-09T02:24:50.881Z,64.12
2024-01-09T02:27:38.251Z,64.16
2024-01-09T02:30:06.179Z,64.11
2024-01-09T02:32:34.138Z,64.40
2024-01-09T02:35:01.070Z,64.10
2024-01-09T02:37:27.851Z,64.41
2024-01-09T02:39:58.506Z,64.06
2024-01-09T02:42:25.317Z,64.12
2024-01-09T02:44:58.304Z,64.25
2024-01-09T02:47:25.608Z,64.34
2024-01-09T02:49:52.477Z,64.30
2024-01-09T02:52:27.610Z,64.38
2024-01-09T02:54:54.479Z,64.74
2024-01-09T02:57:21.621Z,64.20
2024-01-09T02:59:48.515Z,64.55
2024-01-09T03:02:15.480Z,64.32
2024-01-09T03:04:42.581Z,64.52
2024-01-09T03:07:09.574Z,64.29
2024-01-09T03:09:37.211Z,64.58
2024-01-09T03:12:08.370Z,64.03
2024-01-09T03:14:38.540Z,64.70
2024-01-09T03:17:06.263Z,63.91
2024-01-09T03:19:33.340Z,64.21
2024-01-09T03:22:00.208Z,64.19
2024-01-09T03:24:27.001Z,64.16
2024-01-09T03:26:54.494Z,64.17
2024-01-09T03:29:21.333Z,64.34
2024-01-09T03:31:48.135Z,63.99
2024-01-09T03:34:14.992Z,63.52
2024-01-09T03:36:44.984Z,63.83
2024-01-09T03:39:14.089Z,63.15
2024-01-09T03:41:43.760Z,63.37
2024-01-09T03:44:11.047Z,63.30
2024-01-09T03:46:38.977Z,63.85
2024-01-09T03:49:05.853Z,63.50
2024-01-09T03:51:33.022Z,64.17
2024-01-09T03:53:59.798Z,63.67
2024-01-09T03:56:26.704Z,63.88
2024-01-09T03:58:53.887Z,63.76
2024-01-09T04:01:20.836Z,64.36
2024-01-09T04:03:47.629Z,64.22
2024-01-09T04:06:15.164Z,64.42
2024-01-09T04:08:42.106Z,64.24
2024-01-09T04:11:09.060Z,64.00
2024-01-09T04:13:35.947Z,63.87
2024-01-09T04:16:02.958Z,64.37
2024-01-09T04:18:30.184Z,64.49
2024-01-09T04:21:00.204Z,63.93
2024-01-09T04:23:27.084Z,63.88
2024-01-09T04:25:53.900Z,63.84
2024-01-09T04:28:20.709Z,64.71
2024-01-09T04:30:48.088Z,64.48
2024-01-09T04:33:15.108Z,64.28
2024-01-09T04:35:42.163Z,64.25
2024-01-09T04:38:09.031Z,64.61
2024-01-09T04:40:35.953Z,64.83
2024-01-09T04:43:02.811Z,64.78
2024-01-09T04:45:29.654Z,64.36
2024-01-09T04:47:56.650Z,64.47
2024-01-09T04:50:23.595Z,64.40
2024-01-09T04:52:50.996Z,64.38
2024-01-09T04:55:17.771Z,64.93
2024-01-09T04:57:44.898Z,64.97
2024-01-09T05:00:12.349Z,65.07
2024-01-09T05:02:39.486Z,65.01
2024-01-09T05:05:06.622Z,64.66
2024-01-09T05:07:33.571Z,64.88
2024-01-09T05:10:00.382Z,65.26
2024-01-09T05:12:27.177Z,65.12
2024-01-09T05:14:54.057Z,65.88
2024-01-09T05:17:21.304Z,65.28
2024-01-09T05:19:48.741Z,65.73
2024-01-09T05:22:16.113Z,66.34
2024-01-09T05:24:43.204Z,66.32
2024-01-09T05:27:09.976Z,66.12
2024-01-09T05:29:39.837Z,65.78
2024-01-09T05:32:07.714Z,65.93
2024-01-09T05:34:34.501Z,65.46
2024-01-09T05:37:01.277Z,65.40
2024-01-09T05:39:29.779Z,65.18
2024-01-09T05:41:57.340Z,65.38
2024-01-09T05:44:24.200Z,64.91
2024-01-09T05:46:51.536Z,64.67
2024-01-09T05:49:18.525Z,64.59
2024-01-09T05:51:45.451Z,64.49
2024-01-09T05:54:13.770Z,64.45
2024-01-09T05:56:42.758Z,64.22
2024-01-09T05:59:09.816Z,64.37
2024-01-09T06:01:36.731Z,64.67
2024-01-09T06:04:03.783Z,64.21
2024-01-09T06:06:31.139Z,64.45
2024-01-09T06:08:58.472Z,64.17
2024-01-09T06:11:26.069Z,63.97
2024-01-09T06:13:55.224Z,64.11
2024-01-09T06:16:22.088Z,64.41
2024-01-09T06:18:48.968Z,64.88
2024-01-09T06:21:17.608Z,64.68
2024-01-09T06:23:45.195Z,64.81
2024-01-09T06:26:14.545Z,65.21
2024-01-09T06:28:43.865Z,65.04
2024-01-09T06:31:10.681Z,64.47
2024-01-09T06:33:37.619Z,64.15
2024-01-09T06:36:05.209Z,64.28
2024-01-09T06:38:32.060Z,64.54
2024-01-09T06:40:59.874Z,64.39
2024-01-09T06:43:26.647Z,64.86
2024-01-09T06:45:53.504Z,65.00
2024-01-09T06:48:20.640Z,64.40
2024-01-09T06:50:48.066Z,64.99
2024-01-09T06:53:14.911Z,64.57
2024-01-09T06:55:42.580Z,64.86
2024-01-09T06:58:10.088Z,64.29
2024-01-09T07:00:39.752Z,64.50
2024-01-09T07:03:07.085Z,65.27
2024-01-09T07:05:37.535Z,65.07
2024-01-09T07:08:05.389Z,65.31
2024-01-09T07:10:32.216Z,64.60
2024-01-09T07:15:46.709Z,65.11
2024-01-09T07:18:17.005Z,64.62
2024-01-09T07:23:45.365Z,63.38
2024-01-09T07:26:12.837Z,63.31
2024-01-09T07:28:43.460Z,63.77
2024-01-09T07:31:15.457Z,63.47
2024-01-09T07:33:53.048Z,63.15
2024-01-09T07:36:24.365Z,62.53
2024-01-09T07:39:22.339Z,62.63
2024-01-09T07:41:50.997Z,62.58
2024-01-09T07:44:19.430Z,62.46
2024-01-09T07:46:48.242Z,61.93
2024-01-09T07:49:23.048Z,60.91
2024-01-09T07:51:58.321Z,60.71
2024-01-09T07:54:25.129Z,60.92
2024-01-09T07:56:52.201Z,60.64
2024-01-09T07:59:19.082Z,60.47
2024-01-09T08:01:55.940Z,60.47
2024-01-09T08:04:25.948Z,60.47
2024-01-09T08:06:53.668Z,60.41
2024-01-09T08:09:20.490Z,60.42
2024-01-09T08:11:48.530Z,59.92
2024-01-09T08:14:16.009Z,60.43
2024-01-09T08:16:43.005Z,60.98
2024-01-09T08:19:10.256Z,60.38
2024-01-09T08:21:39.884Z,60.85
2024-01-09T08:24:08.669Z,61.39
2024-01-09T08:26:36.062Z,61.74
2024-01-09T08:29:04.106Z,62.22
2024-01-09T08:31:31.056Z,62.26
2024-01-09T08:33:58.661Z,61.69
2024-01-09T08:36:25.739Z,61.89
2024-01-09T08:38:52.591Z,61.63
2024-01-09T08:41:19.602Z,61.27
2024-01-09T08:43:46.373Z,60.85
2024-01-09T08:46:13.613Z,60.48
2024-01-09T08:48:40.545Z,59.79
2024-01-09T08:53:58.609Z,59.07
2024-01-09T08:56:25.613Z,59.50
2024-01-09T08:58:55.388Z,58.97
2024-01-09T09:01:22.616Z,58.53
2024-01-09T09:03:49.958Z,58.16
2024-01-09T09:06:18.528Z,57.83
2024-01-09T09:08:48.627Z,59.73
2024-01-09T09:11:18.301Z,59.69
2024-01-09T09:13:45.563Z,60.67
2024-01-09T09:16:12.624Z,60.08
2024-01-09T09:18:40.892Z,60.46
2024-01-09T09:21:08.944Z,60.42
2024-01-09T09:23:35.950Z,60.07
2024-01-09T09:26:04.660Z,58.93
2024-01-09T09:28:41.073Z,58.69
2024-01-09T09:31:17.508Z,57.92
2024-01-09T09:33:45.849Z,57.96
2024-01-09T09:36:15.694Z,58.09
2024-01-09T09:38:44.152Z,57.72
2024-01-09T09:41:18.044Z,56.63
2024-01-09T09:43:51.624Z,56.49
2024-01-09T09:46:35.055Z,56.25
2024-01-09T09:49:02.075Z,56.36
2024-01-09T09:51:29.526Z,57.15
2024-01-09T09:54:02.160Z,55.94
2024-01-09T09:56:29.121Z,55.82
2024-01-09T09:58:56.099Z,55.16
2024-01-09T10:01:24.050Z,55.46
2024-01-09T10:03:58.052Z,55.69
2024-01-09T10:06:25.481Z,55.62
2024-01-09T10:08:52.585Z,55.15
2024-01-09T10:11:19.407Z,55.04
2024-01-09T10:13:46.455Z,54.88
2024-01-09T10:16:14.033Z,54.42
2024-01-09T10:18:41.389Z,53.55
2024-01-09T10:21:11.878Z,53.26
2024-01-09T10:23:40.767Z,53.44
2024-01-09T10:26:13.879Z,54.46
2024-01-09T10:28:42.608Z,54.22
2024-01-09T10:31:09.949Z,54.14
2024-01-09T10:33:43.270Z,53.74
2024-01-09T10:36:10.511Z,54.06
2024-01-09T10:38:37.799Z,54.61
2024-01-09T10:41:21.552Z,55.54
2024-01-09T10:43:48.939Z,54.82
2024-01-09T10:46:15.766Z,54.49
2024-01-09T10:48:43.326Z,53.92
2024-01-09T10:51:12.149Z,53.79
2024-01-09T10:53:41.882Z,53.42
2024-01-09T10:56:10.012Z,54.39
2024-01-09T10:58:37.166Z,55.25
2024-01-09T11:01:04.319Z,54.83
2024-01-09T11:03:31.258Z,55.05
2024-01-09T11:06:00.747Z,55.25
2024-01-09T11:08:27.898Z,55.66
2024-01-09T11:10:56.244Z,55.43
2024-01-09T11:13:24.210Z,54.91
2024-01-09T11:15:56.295Z,55.93
2024-01-09T11:18:28.591Z,55.43
2024-01-09T11:21:01.858Z,54.74
2024-01-09T11:23:44.386Z,54.84
2024-01-09T11:26:15.224Z,55.11
2024-01-09T11:28:43.956Z,54.53
2024-01-09T11:31:15.021Z,54.39
2024-01-09T11:33:44.008Z,55.05
2024-01-09T11:36:15.904Z,55.31
2024-01-09T11:38:43.345Z,55.72
2024-01-09T11:41:11.130Z,57.45
2024-01-09T11:44:04.002Z,57.84
2024-01-09T11:46:42.837Z,58.36
2024-01-09T11:49:12.810Z,58.81
2024-01-09T11:51:39.739Z,60.08
2024-01-09T11:54:10.589Z,60.29
2024-01-09T11:56:38.388Z,59.60
2024-01-09T11:59:09.144Z,58.80
2024-01-09T12:01:36.262Z,58.13
2024-01-09T12:04:03.864Z,58.38
2024-01-09T12:06:31.128Z,57.52
2024-01-09T12:08:58.465Z,57.73
2024-01-09T12:11:25.513Z,58.46
2024-01-09T12:14:04.413Z,57.87
2024-01-09T12:16:32.537Z,57.80
2024-01-09T12:19:00.082Z,57.63
2024-01-09T12:21:35.135Z,57.82
2024-01-09T12:24:20.289Z,57.94
2024-01-09T12:26:50.925Z,59.13
2024-01-09T12:29:18.030Z,58.40
2024-01-09T12:31:45.337Z,58.58
2024-01-09T12:34:12.561Z,59.17
2024-01-09T12:36:41.179Z,59.39
2024-01-09T12:39:14.228Z,58.87
2024-01-09T12:41:41.575Z,58.48
2024-01-09T12:44:14.499Z,58.01
2024-01-09T12:46:48.770Z,58.15
2024-01-09T12:49:16.059Z,57.99
2024-01-09T12:51:43.236Z,58.50
2024-01-09T12:54:17.477Z,58.01
2024-01-09T12:56:45.486Z,58.23
2024-01-09T12:59:13.415Z,58.78
2024-01-09T13:01:40.752Z,58.67
2024-01-09T13:04:07.587Z,59.08
2024-01-09T13:06:34.720Z,59.05
2024-01-09T13:09:02.053Z,58.83
2024-01-09T13:11:29.022Z,60.20
2024-01-09T13:13:56.336Z,59.73
2024-01-09T13:16:23.516Z,59.90
2024-01-09T13:18:50.476Z,59.51
2024-01-09T13:21:18.668Z,59.29
2024-01-09T13:23:50.223Z,60.09
2024-01-09T13:26:20.183Z,59.67
2024-01-09T13:31:18.885Z,59.27
2024-01-09T13:33:45.710Z,59.49
2024-01-09T13:36:17.816Z,59.32
2024-01-09T13:38:47.156Z,58.91
2024-01-09T13:41:17.524Z,59.55
2024-01-09T13:43:44.511Z,59.76
2024-01-09T13:46:16.197Z,59.86
2024-01-09T13:48:48.205Z,60.17
2024-01-09T13:53:45.252Z,60.17
2024-01-09T13:56:13.572Z,60.05
2024-01-09T13:58:40.837Z,60.03
2024-01-09T14:01:07.834Z,60.21
2024-01-09T14:03:35.046Z,59.78
2024-01-09T14:06:02.163Z,59.38
2024-01-09T14:08:29.232Z,59.07
2024-01-09T14:10:56.386Z,59.68
2024-01-09T14:13:23.188Z,60.60
2024-01-09T14:15:53.279Z,60.79
2024-01-09T14:18:23.206Z,61.13
2024-01-09T14:20:50.042Z,60.97
2024-01-09T14:23:16.905Z,61.16
2024-01-09T14:25:46.679Z,60.89
2024-01-09T14:28:13.815Z,60.84
2024-01-09T14:30:40.729Z,60.86
2024-01-09T14:33:07.698Z,60.92
2024-01-09T14:35:35.080Z,61.72
2024-01-09T14:38:02.162Z,61.63
2024-01-09T14:40:30.299Z,61.41
2024-01-09T14:42:57.667Z,61.96
2024-01-09T14:45:24.463Z,62.21
2024-01-09T14:47:51.332Z,61.89
2024-01-09T14:50:18.244Z,61.69
2024-01-09T14:52:45.554Z,61.63
2024-01-09T14:55:12.453Z,61.14
2024-01-09T14:57:40.637Z,61.46
2024-01-09T15:00:12.592Z,61.20
2024-01-09T15:02:39.608Z,62.12
2024-01-09T15:05:07.313Z,61.89
2024-01-09T15:07:34.334Z,61.93
2024-01-09T15:10:01.420Z,61.98
2024-01-09T15:12:31.362Z,61.68
2024-01-09T15:14:58.588Z,62.64
2024-01-09T15:17:25.570Z,62.45
2024-01-09T15:19:52.911Z,62.68
2024-01-09T15:22:19.825Z,62.20
2024-01-09T15:24:46.632Z,62.75
2024-01-09T15:27:13.643Z,62.50
2024-01-09T15:29:42.497Z,62.15
2024-01-09T15:32:10.085Z,62.02
2024-01-09T15:34:37.326Z,62.67
2024-01-09T15:37:04.426Z,62.45
2024-01-09T15:39:32.191Z,63.03
2024-01-09T15:41:59.517Z,63.11
2024-01-09T15:44:26.359Z,63.01
2024-01-09T15:46:54.947Z,63.15
2024-01-09T15:49:21.910Z,63.32
2024-01-09T15:51:48.916Z,63.88
2024-01-09T15:54:15.841Z,63.91
2024-01-09T15:56:43.503Z,63.43
2024-01-09T15:59:10.727Z,62.88
2024-01-09T16:01:37.709Z,63.10
2024-01-09T16:04:04.722Z,62.89
2024-01-09T16:06:33.933Z,62.97
2024-01-09T16:09:00.933Z,63.01
2024-01-09T16:11:27.784Z,63.04
2024-01-09T16:13:56.134Z,62.63
2024-01-09T16:16:23.200Z,63.59
2024-01-09T16:18:50.346Z,62.99
2024-01-09T16:21:17.217Z,63.05
2024-01-09T16:23:45.259Z,62.91
2024-01-09T16:26:13.037Z,63.05
2024-01-09T16:28:40.029Z,63.64
2024-01-09T16:31:07.220Z,63.49
2024-01-09T16:33:34.722Z,64.09
2024-01-09T16:36:01.789Z,64.12
2024-01-09T16:38:28.569Z,64.32
2024-01-09T16:40:55.500Z,63.75
2024-01-09T16:43:25.626Z,63.65
2024-01-09T16:45:52.547Z,63.94
2024-01-09T16:48:28.795Z,63.85
2024-01-09T16:51:02.488Z,63.94
2024-01-09T16:53:29.794Z,63.81
2024-01-09T16:55:57.219Z,63.95
2024-01-09T16:58:24.186Z,63.52
2024-01-09T17:00:51.282Z,63.78
2024-01-09T17:03:18.185Z,64.04
2024-01-09T17:05:45.362Z,64.60
2024-01-09T17:08:12.719Z,64.92
2024-01-09T17:10:39.631Z,65.38
2024-01-09T17:13:06.674Z,66.14
2024-01-09T17:15:33.530Z,65.97
2024-01-09T17:18:05.213Z,65.68
2024-01-09T17:20:32.339Z,65.80
2024-01-09T17:22:59.499Z,65.65
2024-01-09T17:25:29.902Z,65.71
2024-01-09T17:28:05.593Z,65.77
2024-01-09T17:30:32.806Z,65.75
2024-01-09T17:33:01.023Z,65.68
2024-01-09T17:35:27.856Z,66.04
2024-01-09T17:37:54.733Z,66.40
2024-01-09T17:40:21.640Z,66.27
2024-01-09T17:42:48.647Z,66.69
2024-01-09T17:45:17.969Z,66.20
2024-01-09T17:47:49.129Z,65.83
2024-01-09T17:50:17.104Z,65.95
2024-01-09T17:52:44.327Z,65.98
2024-01-09T17:55:11.101Z,66.15
2024-01-09T17:57:39.140Z,65.74
2024-01-09T18:00:08.131Z,66.45
2024-01-09T18:02:35.959Z,66.04
2024-01-09T18:05:02.818Z,66.45
2024-01-09T18:07:30.401Z,65.87
2024-01-09T18:09:57.224Z,66.79
2024-01-09T18:12:24.055Z,66.57
2024-01-09T18:14:50.811Z,66.85
2024-01-09T18:17:18.127Z,66.58
2024-01-09T18:19:45.011Z,66.67
2024-01-09T18:22:11.884Z,66.29
2024-01-09T18:24:41.895Z,66.44
2024-01-09T18:27:08.868Z,66.88
2024-01-09T18:29:35.846Z,66.38
2024-01-09T18:32:03.401Z,66.74
2024-01-09T18:34:30.702Z,66.92
2024-01-09T18:36:57.975Z,66.74
2024-01-09T18:39:27.863Z,67.18
2024-01-09T18:41:58.930Z,67.56
2024-01-09T18:44:26.978Z,67.56
2024-01-09T18:46:54.118Z,67.64
2024-01-09T18:49:21.592Z,67.46
2024-01-09T18:51:49.547Z,67.57
2024-01-09T18:54:16.943Z,67.05
2024-01-09T18:56:46.868Z,67.31
2024-01-09T18:59:16.406Z,67.11
2024-01-09T19:01:47.605Z,67.49
2024-01-09T19:04:23.524Z,66.86
2024-01-09T19:06:50.517Z,67.28
2024-01-09T19:09:27.468Z,67.07
2024-01-09T19:11:54.338Z,67.18
2024-01-09T19:14:27.332Z,67.83
2024-01-09T19:16:56.180Z,67.83
2024-01-09T19:19:23.112Z,68.40
2024-01-09T19:21:54.867Z,67.95
2024-01-09T19:24:22.671Z,67.88
2024-01-09T19:26:49.655Z,67.56
2024-01-09T19:29:20.437Z,68.18
2024-01-09T19:31:47.651Z,67.70
2024-01-09T19:34:14.820Z,68.29
2024-01-09T19:36:45.961Z,68.33
2024-01-09T19:39:12.896Z,67.93
2024-01-09T19:41:40.048Z,67.94
2024-01-09T19:44:10.084Z,67.93
2024-01-09T19:46:42.352Z,68.39
2024-01-09T19:49:09.822Z,68.36
2024-01-09T19:51:36.901Z,68.73
2024-01-09T19:54:03.892Z,68.03
2024-01-09T19:56:33.643Z,68.22
2024-01-09T19:59:01.160Z,68.57
2024-01-09T20:01:29.768Z,68.40
2024-01-09T20:03:56.949Z,68.27
2024-01-09T20:06:27.340Z,68.43
2024-01-09T20:08:54.893Z,68.66
2024-01-09T20:11:26.914Z,68.22
2024-01-09T20:14:00.663Z,68.20
2024-01-09T20:16:28.458Z,68.63
2024-01-09T20:18:55.521Z,68.03
2024-01-09T20:21:32.425Z,68.62
2024-01-09T20:23:59.686Z,67.90
2024-01-09T20:26:28.049Z,68.09
2024-01-09T20:28:55.524Z,68.19
2024-01-09T20:31:22.637Z,67.63
2024-01-09T20:33:54.827Z,67.28
2024-01-09T20:36:23.150Z,67.33
2024-01-09T20:38:50.038Z,67.67
2024-01-09T20:41:17.077Z,67.08
2024-01-09T20:43:43.994Z,67.76
2024-01-09T20:46:10.810Z,67.19
2024-01-09T20:48:38.107Z,67.05
2024-01-09T20:51:05.642Z,66.94
2024-01-09T20:53:33.180Z,66.85
2024-01-09T20:56:02.667Z,66.54
2024-01-09T20:58:29.721Z,66.68
2024-01-09T21:00:56.786Z,66.89
2024-01-09T21:03:26.767Z,66.80
2024-01-09T21:05:53.828Z,66.99
2024-01-09T21:08:20.828Z,67.21
2024-01-09T21:10:47.738Z,67.24
2024-01-09T21:13:17.623Z,67.33
2024-01-09T21:15:44.944Z,67.31
2024-01-09T21:18:12.947Z,67.08
2024-01-09T21:20:40.443Z,67.16
2024-01-09T21:23:07.523Z,67.23
2024-01-09T21:25:35.132Z,67.39
2024-01-09T21:28:02.148Z,67.31
2024-01-09T21:30:29.322Z,67.18
2024-01-09T21:32:56.285Z,67.52
2024-01-09T21:35:23.221Z,67.15
2024-01-09T21:38:08.788Z,67.31
2024-01-09T21:40:44.365Z,66.96
2024-01-09T21:43:19.583Z,66.95
2024-01-09T21:45:46.352Z,66.58
2024-01-09T21:48:13.692Z,66.24
2024-01-09T21:50:40.611Z,65.91
2024-01-09T21:53:10.247Z,66.10
2024-01-09T21:55:37.099Z,66.21
2024-01-09T21:58:05.072Z,66.22
2024-01-09T22:00:31.878Z,66.56
2024-01-09T22:02:58.692Z,66.58
2024-01-09T22:05:25.544Z,66.88
2024-01-09T22:07:52.389Z,66.79
2024-01-09T22:10:19.225Z,66.68
2024-01-09T22:12:46.284Z,66.55
2024-01-09T22:15:13.270Z,66.89
2024-01-09T22:17:41.185Z,66.36
2024-01-09T22:20:09.453Z,66.14
2024-01-09T22:22:36.304Z,65.90
2024-01-09T22:25:03.494Z,65.97
2024-01-09T22:27:30.465Z,66.00
2024-01-09T22:29:57.471Z,66.17
2024-01-09T22:32:24.404Z,66.18
2024-01-09T22:34:51.402Z,65.92
2024-01-09T22:37:18.118Z,65.61
2024-01-09T22:39:46.560Z,65.41
2024-01-09T22:42:13.353Z,65.77
2024-01-09T22:44:40.450Z,65.38
2024-01-09T22:47:07.397Z,65.69
2024-01-09T22:49:34.229Z,65.76
2024-01-09T22:52:01.074Z,65.53
2024-01-09T22:54:27.863Z,65.46
2024-01-09T22:56:54.671Z,65.58
2024-01-09T22:59:21.778Z,65.05
2024-01-09T23:01:54.705Z,65.49
2024-01-09T23:04:21.827Z,65.73
2024-01-09T23:06:48.730Z,65.89
2024-01-09T23:09:15.854Z,65.84
2024-01-09T23:11:42.622Z,65.58
2024-01-09T23:14:09.639Z,65.51
2024-01-09T23:16:36.546Z,65.10
2024-01-09T23:19:03.536Z,65.31
2024-01-09T23:21:30.499Z,65.62
2024-01-09T23:23:57.463Z,65.74
2024-01-09T23:26:24.302Z,65.12
2024-01-09T23:28:51.178Z,64.63
2024-01-09T23:31:18.453Z,64.61
2024-01-09T23:33:45.595Z,64.45
2024-01-09T23:36:15.442Z,64.64
2024-01-09T23:38:42.233Z,64.40
2024-01-09T23:41:09.388Z,64.57
2024-01-09T23:43:36.506Z,64.27
2024-01-09T23:46:03.385Z,64.14
2024-01-09T23:48:30.339Z,64.43
2024-01-09T23:51:00.996Z,64.75
2024-01-09T23:53:28.014Z,63.89
2024-01-09T23:55:54.846Z,64.20
2024-01-09T23:58:21.972Z,63.87
